createdAt,value
2018-08-23T00:00:32.882Z,30.30
2018-08-23T00:01:32.898Z,30.10
2018-08-23T00:02:32.844Z,30.40
2018-08-23T00:03:32.927Z,30.80
2018-08-23T00:04:32.800Z,30.80
2018-08-23T00:05:32.823Z,32.10
2018-08-23T00:06:32.763Z,35.40
2018-08-23T00:07:32.841Z,30.90
2018-08-23T00:08:32.726Z,32.50
2018-08-23T00:09:32.751Z,32.60
2018-08-23T00:10:32.677Z,31.40
2018-08-23T00:11:32.763Z,33.30
2018-08-23T00:12:32.637Z,31.20
2018-08-23T00:13:32.675Z,31.00
2018-08-23T00:14:32.594Z,31.60
2018-08-23T00:15:32.688Z,32.00
2018-08-23T00:16:32.592Z,32.90
2018-08-23T00:17:32.602Z,30.20
2018-08-23T00:18:32.516Z,29.90
2018-08-23T00:19:32.512Z,30.70
2018-08-23T00:20:32.477Z,30.50
2018-08-23T00:21:32.525Z,31.60
2018-08-23T00:22:32.436Z,32.70
2018-08-23T00:23:32.439Z,31.10
2018-08-23T00:24:32.393Z,30.90
2018-08-23T00:25:32.453Z,31.20
2018-08-23T00:26:32.353Z,30.70
2018-08-23T00:27:32.364Z,30.50
2018-08-23T00:28:32.313Z,30.30
2018-08-23T00:29:32.379Z,30.10
2018-08-23T00:30:32.269Z,31.10
2018-08-23T00:31:32.295Z,32.50
2018-08-23T00:32:32.230Z,31.70
2018-08-23T00:33:32.310Z,32.60
2018-08-23T00:34:32.196Z,30.60
2018-08-23T00:35:32.218Z,30.20
2018-08-23T00:36:32.149Z,31.60
2018-08-23T00:37:32.231Z,29.60
2018-08-23T00:38:32.108Z,30.70
2018-08-23T00:39:32.141Z,30.80
2018-08-23T00:40:32.073Z,30.20
2018-08-23T00:41:32.156Z,29.10
2018-08-23T00:42:32.033Z,30.40
2018-08-23T00:43:32.071Z,32.40
2018-08-23T00:44:31.990Z,30.80
2018-08-23T00:45:31.982Z,32.00
2018-08-23T00:46:31.942Z,30.80
2018-08-23T00:47:31.996Z,31.30
2018-08-23T00:48:31.903Z,32.40
2018-08-23T00:49:31.908Z,31.70
2018-08-23T00:50:31.861Z,30.10
2018-08-23T00:51:31.923Z,30.80
2018-08-23T00:52:31.819Z,31.60
2018-08-23T00:53:31.835Z,33.30
2018-08-23T00:54:31.786Z,29.80
2018-08-23T00:55:31.850Z,30.20
2018-08-23T00:56:31.741Z,34.10
2018-08-23T00:57:31.761Z,33.60
2018-08-23T00:58:31.698Z,37.00
2018-08-23T00:59:31.778Z,32.50
2018-08-23T01:00:31.657Z,30.50
2018-08-23T01:01:31.688Z,33.80
2018-08-23T01:02:31.613Z,32.70
2018-08-23T01:03:31.704Z,32.50
2018-08-23T01:04:31.573Z,30.60
2018-08-23T01:05:31.615Z,31.00
2018-08-23T01:06:31.533Z,31.80
2018-08-23T01:07:31.629Z,30.40
2018-08-23T01:08:31.492Z,30.10
2018-08-23T01:09:31.539Z,31.30
2018-08-23T01:10:31.451Z,30.40
2018-08-23T01:11:31.450Z,30.80
2018-08-23T01:12:31.407Z,30.50
2018-08-23T01:13:31.467Z,30.40
2018-08-23T01:14:31.367Z,29.70
2018-08-23T01:15:31.380Z,30.60
2018-08-23T01:16:31.333Z,30.50
2018-08-23T01:17:31.391Z,30.40
2018-08-23T01:18:31.281Z,30.10
2018-08-23T01:19:31.302Z,30.20
2018-08-23T01:20:31.247Z,31.20
2018-08-23T01:21:31.315Z,32.00
2018-08-23T01:22:31.197Z,32.30
2018-08-23T01:23:31.228Z,32.90
2018-08-23T01:24:31.162Z,30.60
2018-08-23T01:25:31.242Z,30.80
2018-08-23T01:26:31.119Z,29.70
2018-08-23T01:27:31.155Z,30.70
2018-08-23T01:28:31.074Z,32.00
2018-08-23T01:29:31.066Z,30.40
2018-08-23T01:30:31.035Z,29.40
2018-08-23T01:31:31.081Z,28.90
2018-08-23T01:32:30.993Z,32.10
2018-08-23T01:33:30.992Z,30.30
2018-08-23T01:34:30.948Z,33.50
2018-08-23T01:35:31.008Z,31.30
2018-08-23T01:36:30.908Z,34.40
2018-08-23T01:37:30.916Z,31.20
2018-08-23T01:38:30.867Z,34.40
2018-08-23T01:39:30.934Z,31.70
2018-08-23T01:40:30.822Z,32.80
2018-08-23T01:41:30.845Z,33.50
2018-08-23T01:42:30.779Z,32.80
2018-08-23T01:43:30.859Z,33.90
2018-08-23T01:44:30.736Z,36.00
2018-08-23T01:45:30.772Z,33.70
2018-08-23T01:46:30.705Z,31.40
2018-08-23T01:47:30.786Z,34.50
2018-08-23T01:49:30.697Z,30.80
2018-08-23T01:50:30.613Z,30.80
2018-08-23T01:51:30.608Z,31.50
2018-08-23T01:52:30.572Z,30.80
2018-08-23T01:53:30.623Z,31.70
2018-08-23T01:54:30.526Z,30.40
2018-08-23T01:55:30.534Z,32.90
2018-08-23T01:56:30.487Z,33.80
2018-08-23T01:57:30.550Z,32.10
2018-08-23T01:58:30.443Z,31.30
2018-08-23T01:59:30.464Z,30.40
2018-08-23T02:00:30.441Z,30.40
2018-08-23T02:01:30.476Z,32.70
2018-08-23T02:02:30.360Z,31.30
2018-08-23T02:03:30.388Z,32.50
2018-08-23T02:04:30.318Z,35.10
2018-08-23T02:05:30.402Z,32.20
2018-08-23T02:06:30.279Z,33.20
2018-08-23T02:07:30.314Z,34.40
2018-08-23T02:08:30.237Z,33.30
2018-08-23T02:09:30.325Z,32.40
2018-08-23T02:10:30.189Z,34.60
2018-08-23T02:11:30.238Z,35.60
2018-08-23T02:12:30.149Z,34.10
2018-08-23T02:13:30.153Z,32.40
2018-08-23T02:14:30.108Z,37.30
2018-08-23T02:15:30.169Z,33.60
2018-08-23T02:16:30.061Z,34.40
2018-08-23T02:17:30.080Z,34.50
2018-08-23T02:18:30.020Z,36.20
2018-08-23T02:19:30.095Z,34.70
2018-08-23T02:20:29.978Z,34.90
2018-08-23T02:21:30.006Z,34.30
2018-08-23T02:22:29.935Z,36.80
2018-08-23T02:23:30.021Z,36.10
2018-08-23T02:24:29.897Z,39.80
2018-08-23T02:25:29.936Z,40.40
2018-08-23T02:26:29.849Z,39.40
2018-08-23T02:27:29.847Z,41.50
2018-08-23T02:28:29.805Z,43.80
2018-08-23T02:29:29.858Z,43.10
2018-08-23T02:30:29.768Z,41.40
2018-08-23T02:31:29.771Z,41.20
2018-08-23T02:32:29.721Z,38.60
2018-08-23T02:33:29.786Z,39.60
2018-08-23T02:34:29.679Z,42.30
2018-08-23T02:35:29.698Z,41.20
2018-08-23T02:36:29.637Z,40.80
2018-08-23T02:37:29.711Z,40.60
2018-08-23T02:38:29.593Z,40.90
2018-08-23T02:39:29.623Z,39.60
2018-08-23T02:40:29.552Z,38.90
2018-08-23T02:41:29.643Z,39.70
2018-08-23T02:42:29.508Z,40.60
2018-08-23T02:43:29.554Z,37.90
2018-08-23T02:44:29.466Z,39.70
2018-08-23T02:45:29.467Z,41.10
2018-08-23T02:46:29.426Z,40.20
2018-08-23T02:47:29.475Z,40.60
2018-08-23T02:48:29.383Z,38.80
2018-08-23T02:49:29.386Z,38.90
2018-08-23T02:50:29.336Z,41.50
2018-08-23T02:51:29.408Z,41.70
2018-08-23T02:52:29.296Z,43.70
2018-08-23T02:53:29.315Z,42.50
2018-08-23T02:54:29.255Z,42.70
2018-08-23T02:55:29.329Z,48.80
2018-08-23T02:56:29.211Z,50.20
2018-08-23T02:57:29.239Z,44.90
2018-08-23T02:58:29.168Z,46.90
2018-08-23T02:59:29.253Z,44.00
2018-08-23T03:00:29.178Z,47.90
2018-08-23T03:01:29.164Z,48.40
2018-08-23T03:02:29.080Z,44.50
2018-08-23T03:03:29.075Z,48.10
2018-08-23T03:04:29.038Z,48.00
2018-08-23T03:05:29.093Z,46.20
2018-08-23T03:06:28.997Z,46.00
2018-08-23T03:07:29.003Z,44.00
2018-08-23T03:08:28.951Z,45.60
2018-08-23T03:09:29.014Z,45.40
2018-08-23T03:10:28.908Z,42.60
2018-08-23T03:11:28.928Z,42.10
2018-08-23T03:12:28.863Z,42.40
2018-08-23T03:13:28.965Z,43.80
2018-08-23T03:14:28.822Z,40.20
2018-08-23T03:15:28.854Z,41.80
2018-08-23T03:16:28.781Z,41.60
2018-08-23T03:17:28.867Z,41.90
2018-08-23T03:18:28.738Z,41.50
2018-08-23T03:19:28.783Z,45.70
2018-08-23T03:20:28.693Z,45.70
2018-08-23T03:21:28.690Z,43.20
2018-08-23T03:22:28.649Z,41.60
2018-08-23T03:23:28.705Z,41.50
2018-08-23T03:24:28.608Z,44.40
2018-08-23T03:25:28.617Z,42.60
2018-08-23T03:26:28.561Z,43.70
2018-08-23T03:27:28.629Z,41.10
2018-08-23T03:28:28.521Z,41.80
2018-08-23T03:29:28.542Z,41.40
2018-08-23T03:30:28.483Z,40.80
2018-08-23T03:31:28.559Z,41.50
2018-08-23T03:32:28.434Z,40.30
2018-08-23T03:33:28.470Z,43.00
2018-08-23T03:34:28.391Z,42.20
2018-08-23T03:35:28.483Z,42.50
2018-08-23T03:36:28.347Z,44.50
2018-08-23T03:37:28.394Z,40.20
2018-08-23T03:38:28.302Z,41.50
2018-08-23T03:39:28.308Z,44.10
2018-08-23T03:40:28.259Z,45.40
2018-08-23T03:41:28.320Z,46.20
2018-08-23T03:42:28.218Z,46.90
2018-08-23T03:43:28.234Z,49.60
2018-08-23T03:44:28.181Z,47.30
2018-08-23T03:45:28.252Z,46.30
2018-08-23T03:46:28.131Z,48.10
2018-08-23T03:47:28.160Z,49.90
2018-08-23T03:48:28.096Z,52.20
2018-08-23T03:49:28.173Z,51.20
2018-08-23T03:50:28.044Z,56.10
2018-08-23T03:51:28.088Z,54.10
2018-08-23T03:52:28.014Z,50.40
2018-08-23T03:53:27.999Z,52.20
2018-08-23T03:54:27.957Z,50.80
2018-08-23T03:55:28.011Z,56.50
2018-08-23T03:56:27.912Z,55.80
2018-08-23T03:57:27.924Z,56.50
2018-08-23T03:58:27.868Z,55.30
2018-08-23T03:59:27.939Z,52.20
2018-08-23T04:00:27.827Z,51.90
2018-08-23T04:01:27.852Z,48.10
2018-08-23T04:02:27.785Z,46.00
2018-08-23T04:03:27.864Z,50.70
2018-08-23T04:04:27.739Z,47.10
2018-08-23T04:05:27.775Z,44.80
2018-08-23T04:06:27.697Z,47.70
2018-08-23T04:07:27.790Z,45.80
2018-08-23T04:08:27.655Z,47.10
2018-08-23T04:09:27.701Z,48.10
2018-08-23T04:10:27.607Z,48.30
2018-08-23T04:11:27.619Z,47.80
2018-08-23T04:12:27.566Z,50.80
2018-08-23T04:13:27.627Z,48.00
2018-08-23T04:14:27.522Z,47.80
2018-08-23T04:15:27.579Z,50.80
2018-08-23T04:16:27.483Z,47.00
2018-08-23T04:17:27.554Z,49.50
2018-08-23T04:18:27.436Z,49.20
2018-08-23T04:19:27.461Z,48.80
2018-08-23T04:20:27.394Z,50.90
2018-08-23T04:21:27.479Z,48.00
2018-08-23T04:22:27.349Z,49.50
2018-08-23T04:23:27.399Z,50.10
2018-08-23T04:24:27.303Z,48.90
2018-08-23T04:25:27.304Z,50.90
2018-08-23T04:26:27.259Z,50.60
2018-08-23T04:27:27.318Z,53.90
2018-08-23T04:28:27.214Z,51.40
2018-08-23T04:29:27.229Z,55.00
2018-08-23T04:30:27.170Z,56.50
2018-08-23T04:31:27.243Z,51.70
2018-08-23T04:32:27.131Z,55.10
2018-08-23T04:33:27.156Z,50.20
2018-08-23T04:34:27.083Z,48.60
2018-08-23T04:35:27.170Z,50.00
2018-08-23T04:36:27.046Z,49.60
2018-08-23T04:37:27.081Z,51.30
2018-08-23T04:38:26.995Z,50.00
2018-08-23T04:39:26.995Z,50.10
2018-08-23T04:40:26.957Z,47.90
2018-08-23T04:41:27.009Z,49.10
2018-08-23T04:42:26.908Z,48.70
2018-08-23T04:43:26.921Z,46.90
2018-08-23T04:44:26.866Z,49.00
2018-08-23T04:45:26.940Z,51.50
2018-08-23T04:46:26.825Z,49.70
2018-08-23T04:47:26.847Z,52.50
2018-08-23T04:48:26.775Z,51.30
2018-08-23T04:49:26.862Z,50.10
2018-08-23T04:50:26.739Z,48.60
2018-08-23T04:51:26.773Z,49.70
2018-08-23T04:52:26.690Z,51.30
2018-08-23T04:53:26.685Z,51.80
2018-08-23T04:54:26.645Z,51.40
2018-08-23T04:55:26.701Z,49.50
2018-08-23T04:56:26.603Z,50.30
2018-08-23T04:57:26.610Z,51.10
2018-08-23T04:58:26.563Z,50.80
2018-08-23T04:59:26.624Z,52.80
2018-08-23T05:00:26.514Z,56.50
2018-08-23T05:01:26.539Z,53.40
2018-08-23T05:02:26.470Z,53.10
2018-08-23T05:03:26.553Z,51.40
2018-08-23T05:04:26.430Z,54.00
2018-08-23T05:05:26.465Z,51.00
2018-08-23T05:06:26.382Z,54.70
2018-08-23T05:07:26.374Z,53.70
2018-08-23T05:08:26.341Z,51.30
2018-08-23T05:09:26.388Z,51.80
2018-08-23T05:10:26.297Z,53.50
2018-08-23T05:11:26.302Z,54.20
2018-08-23T05:12:26.255Z,54.10
2018-08-23T05:13:26.316Z,53.60
2018-08-23T05:14:26.210Z,53.30
2018-08-23T05:15:26.228Z,53.70
2018-08-23T05:16:26.164Z,55.00
2018-08-23T05:17:26.242Z,57.90
2018-08-23T05:18:26.122Z,53.00
2018-08-23T05:19:26.153Z,56.90
2018-08-23T05:20:26.076Z,55.20
2018-08-23T05:21:26.168Z,64.90
2018-08-23T05:22:26.031Z,57.90
2018-08-23T05:23:26.084Z,54.30
2018-08-23T05:24:25.989Z,59.20
2018-08-23T05:25:25.991Z,57.30
2018-08-23T05:26:25.946Z,61.30
2018-08-23T05:27:26.009Z,60.50
2018-08-23T05:28:25.901Z,63.00
2018-08-23T05:29:25.927Z,60.90
2018-08-23T05:30:25.858Z,59.20
2018-08-23T05:31:25.940Z,60.30
2018-08-23T05:32:25.814Z,60.80
2018-08-23T05:33:25.851Z,59.80
2018-08-23T05:34:25.768Z,58.60
2018-08-23T05:35:25.863Z,62.40
2018-08-23T05:36:25.729Z,63.10
2018-08-23T05:37:25.778Z,61.00
2018-08-23T05:38:25.684Z,62.00
2018-08-23T05:39:25.685Z,66.00
2018-08-23T05:40:25.638Z,62.20
2018-08-23T05:41:25.701Z,64.10
2018-08-23T05:42:25.597Z,62.30
2018-08-23T05:43:25.611Z,61.20
2018-08-23T05:44:25.553Z,59.20
2018-08-23T05:45:25.627Z,61.90
2018-08-23T05:46:25.507Z,63.20
2018-08-23T05:47:25.537Z,61.30
2018-08-23T05:48:25.468Z,61.20
2018-08-23T05:49:25.575Z,61.00
2018-08-23T05:50:25.422Z,61.40
2018-08-23T05:51:25.462Z,64.20
2018-08-23T05:52:25.378Z,64.40
2018-08-23T05:53:25.373Z,60.40
2018-08-23T05:54:25.333Z,62.60
2018-08-23T05:55:25.388Z,62.90
2018-08-23T05:56:25.291Z,64.30
2018-08-23T05:57:25.302Z,62.30
2018-08-23T05:58:25.247Z,64.10
2018-08-23T05:59:25.312Z,63.20
2018-08-23T06:00:25.203Z,64.50
2018-08-23T06:01:25.227Z,67.50
2018-08-23T06:02:25.159Z,64.10
2018-08-23T06:03:25.237Z,65.10
2018-08-23T06:04:25.116Z,65.10
2018-08-23T06:05:25.148Z,65.80
2018-08-23T06:06:25.069Z,65.60
2018-08-23T06:07:25.162Z,68.20
2018-08-23T06:08:25.086Z,67.60
2018-08-23T06:09:25.076Z,70.10
2018-08-23T06:10:24.985Z,72.50
2018-08-23T06:11:24.988Z,74.80
2018-08-23T06:12:24.941Z,70.10
2018-08-23T06:13:24.999Z,73.10
2018-08-23T06:14:24.901Z,72.90
2018-08-23T06:15:24.912Z,70.30
2018-08-23T06:16:24.854Z,72.10
2018-08-23T06:17:24.927Z,73.00
2018-08-23T06:18:24.812Z,71.60
2018-08-23T06:19:24.847Z,72.10
2018-08-23T06:20:24.768Z,75.90
2018-08-23T06:21:24.852Z,74.30
2018-08-23T06:22:24.725Z,76.70
2018-08-23T06:23:24.767Z,76.80
2018-08-23T06:24:24.681Z,74.20
2018-08-23T06:25:24.678Z,78.40
2018-08-23T06:26:24.636Z,78.60
2018-08-23T06:27:24.714Z,73.40
2018-08-23T06:28:24.593Z,74.80
2018-08-23T06:29:24.602Z,79.90
2018-08-23T06:30:24.553Z,74.80
2018-08-23T06:31:24.620Z,75.50
2018-08-23T06:32:24.512Z,75.70
2018-08-23T06:33:24.727Z,75.80
2018-08-23T06:34:24.464Z,73.80
2018-08-23T06:35:24.545Z,78.20
2018-08-23T06:36:24.425Z,72.80
2018-08-23T06:37:24.463Z,74.10
2018-08-23T06:38:24.378Z,70.30
2018-08-23T06:39:24.469Z,67.30
2018-08-23T06:40:24.339Z,71.30
2018-08-23T06:41:24.381Z,73.10
2018-08-23T06:42:24.292Z,70.70
2018-08-23T06:43:24.292Z,74.00
2018-08-23T06:44:24.297Z,71.80
2018-08-23T06:45:24.305Z,77.00
2018-08-23T06:46:24.208Z,75.80
2018-08-23T06:47:24.218Z,78.20
2018-08-23T06:48:24.168Z,73.80
2018-08-23T06:49:24.233Z,78.80
2018-08-23T06:50:24.125Z,80.40
2018-08-23T06:51:24.146Z,77.30
2018-08-23T06:52:24.080Z,77.70
2018-08-23T06:53:24.161Z,76.50
2018-08-23T06:54:24.039Z,75.30
2018-08-23T06:55:24.071Z,76.80
2018-08-23T06:56:24.003Z,78.00
2018-08-23T06:57:24.085Z,73.60
2018-08-23T06:58:23.952Z,74.40
2018-08-23T06:59:23.997Z,72.60
2018-08-23T07:00:23.910Z,74.50
2018-08-23T07:01:23.916Z,71.30
2018-08-23T07:02:23.869Z,72.90
2018-08-23T07:03:23.925Z,70.60
2018-08-23T07:04:23.825Z,72.10
2018-08-23T07:05:23.877Z,74.10
2018-08-23T07:06:23.784Z,74.80
2018-08-23T07:07:23.849Z,72.80
2018-08-23T07:08:23.742Z,70.20
2018-08-23T07:09:23.762Z,67.10
2018-08-23T07:10:23.702Z,70.20
2018-08-23T07:11:23.777Z,70.00
2018-08-23T07:12:23.662Z,66.40
2018-08-23T07:13:23.687Z,70.70
2018-08-23T07:14:23.618Z,65.00
2018-08-23T07:15:23.702Z,63.30
2018-08-23T07:16:23.572Z,64.30
2018-08-23T07:17:23.654Z,66.10
2018-08-23T07:18:23.533Z,66.60
2018-08-23T07:19:23.529Z,63.90
2018-08-23T07:20:23.488Z,61.90
2018-08-23T07:21:23.541Z,63.00
2018-08-23T07:22:23.446Z,60.90
2018-08-23T07:23:23.453Z,63.70
2018-08-23T07:24:23.416Z,59.40
2018-08-23T07:25:23.468Z,60.40
2018-08-23T07:26:23.437Z,60.90
2018-08-23T07:27:23.369Z,58.00
2018-08-23T07:28:23.323Z,59.10
2018-08-23T07:29:23.392Z,55.90
2018-08-23T07:30:23.280Z,57.90
2018-08-23T07:31:23.308Z,56.20
2018-08-23T07:32:23.240Z,55.90
2018-08-23T07:33:23.349Z,53.10
2018-08-23T07:34:23.202Z,54.10
2018-08-23T07:35:23.230Z,54.10
2018-08-23T07:36:23.170Z,48.80
2018-08-23T07:37:23.139Z,52.00
2018-08-23T07:38:23.257Z,50.50
2018-08-23T07:39:23.190Z,52.90
2018-08-23T07:40:23.270Z,49.80
2018-08-23T07:41:23.055Z,47.00
2018-08-23T07:42:23.060Z,48.50
2018-08-23T07:43:23.090Z,48.50
2018-08-23T07:44:22.994Z,48.30
2018-08-23T07:45:22.996Z,48.30
2018-08-23T07:46:22.956Z,54.50
2018-08-23T07:47:23.011Z,49.60
2018-08-23T07:48:22.917Z,47.50
2018-08-23T07:49:22.924Z,49.60
2018-08-23T07:50:22.870Z,50.70
2018-08-23T07:51:22.958Z,46.60
2018-08-23T07:52:22.834Z,47.80
2018-08-23T07:53:23.018Z,49.00
2018-08-23T07:54:22.795Z,49.70
2018-08-23T07:55:22.868Z,46.40
2018-08-23T07:56:22.752Z,48.90
2018-08-23T07:57:22.778Z,48.30
2018-08-23T07:58:22.712Z,48.10
2018-08-23T07:59:22.787Z,46.10
2018-08-23T08:00:22.669Z,47.20
2018-08-23T08:01:22.704Z,45.60
2018-08-23T08:02:22.634Z,44.40
2018-08-23T08:03:22.714Z,46.10
2018-08-23T08:04:22.592Z,44.60
2018-08-23T08:05:22.626Z,44.40
2018-08-23T08:06:22.554Z,45.60
2018-08-23T08:07:22.639Z,44.10
2018-08-23T08:08:22.513Z,46.20
2018-08-23T08:09:22.552Z,47.00
2018-08-23T08:10:22.475Z,42.90
2018-08-23T08:11:22.565Z,47.20
2018-08-23T08:12:22.435Z,43.50
2018-08-23T08:13:22.478Z,41.80
2018-08-23T08:14:22.396Z,43.10
2018-08-23T08:15:22.668Z,44.40
2018-08-23T08:16:22.355Z,43.40
2018-08-23T08:17:22.405Z,41.60
2018-08-23T08:18:22.312Z,41.80
2018-08-23T08:19:22.315Z,39.80
2018-08-23T08:20:22.274Z,44.50
2018-08-23T08:21:22.328Z,40.90
2018-08-23T08:22:22.235Z,44.10
2018-08-23T08:23:22.243Z,38.70
2018-08-23T08:24:22.196Z,39.30
2018-08-23T08:25:22.257Z,37.30
2018-08-23T08:26:22.162Z,37.40
2018-08-23T08:27:22.169Z,38.60
2018-08-23T08:28:22.120Z,37.00
2018-08-23T08:29:22.190Z,35.20
2018-08-23T08:30:22.080Z,37.20
2018-08-23T08:31:22.092Z,37.30
2018-08-23T08:32:22.043Z,34.60
2018-08-23T08:33:22.111Z,36.70
2018-08-23T08:34:22.004Z,36.60
2018-08-23T08:35:22.020Z,34.40
2018-08-23T08:36:21.963Z,36.70
2018-08-23T08:37:22.036Z,33.50
2018-08-23T08:38:21.927Z,33.60
2018-08-23T08:39:21.948Z,33.30
2018-08-23T08:40:21.887Z,31.40
2018-08-23T08:41:21.959Z,33.90
2018-08-23T08:42:21.850Z,32.80
2018-08-23T08:43:21.872Z,30.40
2018-08-23T08:44:21.813Z,32.70
2018-08-23T08:45:21.887Z,30.80
2018-08-23T08:46:21.770Z,37.40
2018-08-23T08:47:21.796Z,30.00
2018-08-23T08:48:21.733Z,30.30
2018-08-23T08:49:21.814Z,31.60
2018-08-23T08:50:21.731Z,29.90
2018-08-23T08:51:21.723Z,29.00
2018-08-23T08:52:21.662Z,25.90
2018-08-23T08:53:21.740Z,29.30
2018-08-23T08:54:21.619Z,27.80
2018-08-23T08:55:21.651Z,27.90
2018-08-23T08:56:21.590Z,26.00
2018-08-23T08:57:21.733Z,27.20
2018-08-23T08:58:21.544Z,28.70
2018-08-23T08:59:21.584Z,29.40
2018-08-23T09:00:21.512Z,28.00
2018-08-23T09:01:21.591Z,27.10
2018-08-23T09:02:21.468Z,27.00
2018-08-23T09:03:21.504Z,28.10
2018-08-23T09:04:21.436Z,25.90
2018-08-23T09:05:21.519Z,25.40
2018-08-23T09:06:21.397Z,27.70
2018-08-23T09:07:21.429Z,28.90
2018-08-23T09:08:21.359Z,28.10
2018-08-23T09:09:21.445Z,27.30
2018-08-23T09:10:21.319Z,28.10
2018-08-23T09:11:21.357Z,25.00
2018-08-23T09:12:21.284Z,26.50
2018-08-23T09:13:21.370Z,27.20
2018-08-23T09:14:21.255Z,23.90
2018-08-23T09:15:21.281Z,24.40
2018-08-23T09:16:21.217Z,25.60
2018-08-23T09:17:21.298Z,24.50
2018-08-23T09:18:21.172Z,23.60
2018-08-23T09:19:21.206Z,25.60
2018-08-23T09:20:21.183Z,25.70
2018-08-23T09:21:21.238Z,24.30
2018-08-23T09:22:21.100Z,24.40
2018-08-23T09:23:21.090Z,24.00
2018-08-23T09:24:21.067Z,22.60
2018-08-23T09:25:21.261Z,24.50
2018-08-23T09:26:21.031Z,24.10
2018-08-23T09:27:21.114Z,24.70
2018-08-23T09:28:20.995Z,24.50
2018-08-23T09:29:21.080Z,23.90
2018-08-23T09:30:20.962Z,23.40
2018-08-23T09:31:20.996Z,23.20
2018-08-23T09:32:20.925Z,25.80
2018-08-23T09:33:21.004Z,22.20
2018-08-23T09:34:20.889Z,23.00
2018-08-23T09:35:20.926Z,24.60
2018-08-23T09:36:20.854Z,22.50
2018-08-23T09:37:20.927Z,24.10
2018-08-23T09:38:20.809Z,21.60
2018-08-23T09:39:20.847Z,23.10
2018-08-23T09:40:20.786Z,23.10
2018-08-23T09:41:20.861Z,25.70
2018-08-23T09:42:20.760Z,22.40
2018-08-23T09:43:20.773Z,22.90
2018-08-23T09:44:20.719Z,25.00
2018-08-23T09:45:20.785Z,25.80
2018-08-23T09:46:20.688Z,25.30
2018-08-23T09:47:20.696Z,24.40
2018-08-23T09:48:20.646Z,23.80
2018-08-23T09:49:20.712Z,21.60
2018-08-23T09:50:20.619Z,24.30
2018-08-23T09:51:20.623Z,24.30
2018-08-23T09:52:20.636Z,22.90
2018-08-23T09:53:20.635Z,24.10
2018-08-23T09:54:20.548Z,20.80
2018-08-23T09:55:20.651Z,22.90
2018-08-23T09:56:20.530Z,19.80
2018-08-23T09:57:20.560Z,17.70
2018-08-23T09:58:20.482Z,17.90
2018-08-23T09:59:20.574Z,18.20
2018-08-23T10:00:20.449Z,18.70
2018-08-23T10:01:20.493Z,16.70
2018-08-23T10:02:20.414Z,17.50
2018-08-23T10:03:20.503Z,16.40
2018-08-23T10:04:20.447Z,17.10
2018-08-23T10:05:20.415Z,16.20
2018-08-23T10:06:20.383Z,16.80
2018-08-23T10:07:20.426Z,18.70
2018-08-23T10:08:20.315Z,19.70
2018-08-23T10:09:20.341Z,18.60
2018-08-23T10:10:20.285Z,20.10
2018-08-23T10:11:20.432Z,21.40
2018-08-23T10:12:20.253Z,20.40
2018-08-23T10:13:20.271Z,24.70
2018-08-23T10:14:20.219Z,31.60
2018-08-23T10:15:20.281Z,32.30
2018-08-23T10:16:20.196Z,38.50
2018-08-23T10:17:20.194Z,35.00
2018-08-23T10:18:20.153Z,35.70
2018-08-23T10:19:20.205Z,38.20
2018-08-23T10:20:20.124Z,40.20
2018-08-23T10:21:20.218Z,36.70
2018-08-23T10:22:20.089Z,37.90
2018-08-23T10:23:20.133Z,36.30
2018-08-23T10:24:20.056Z,37.60
2018-08-23T10:25:20.144Z,35.60
2018-08-23T10:26:20.026Z,34.50
2018-08-23T10:27:20.047Z,34.90
2018-08-23T10:28:19.996Z,27.80
2018-08-23T10:29:20.078Z,31.90
2018-08-23T10:30:19.966Z,32.60
2018-08-23T10:31:19.982Z,31.80
2018-08-23T10:32:20.056Z,31.00
2018-08-23T10:33:19.995Z,34.80
2018-08-23T10:34:19.905Z,28.90
2018-08-23T10:35:19.920Z,26.40
2018-08-23T10:36:19.912Z,25.10
2018-08-23T10:37:19.924Z,28.70
2018-08-23T10:38:19.857Z,25.10
2018-08-23T10:39:19.824Z,23.40
2018-08-23T10:40:19.814Z,23.30
2018-08-23T10:41:19.793Z,24.10
2018-08-23T10:42:19.785Z,23.70
2018-08-23T10:43:19.764Z,24.90
2018-08-23T10:44:19.831Z,25.10
2018-08-23T10:45:19.732Z,28.10
2018-08-23T10:46:19.828Z,25.40
2018-08-23T10:47:19.701Z,27.00
2018-08-23T10:48:19.690Z,25.80
2018-08-23T10:49:19.672Z,24.20
2018-08-23T10:50:19.665Z,25.10
2018-08-23T10:51:19.650Z,24.80
2018-08-23T10:52:19.657Z,26.80
2018-08-23T10:53:19.683Z,27.50
2018-08-23T10:54:19.667Z,26.60
2018-08-23T10:55:19.575Z,32.00
2018-08-23T10:56:19.699Z,30.60
2018-08-23T10:57:19.548Z,31.60
2018-08-23T10:58:19.546Z,29.20
2018-08-23T10:59:19.515Z,30.90
2018-08-23T11:00:19.505Z,29.90
2018-08-23T11:01:19.490Z,29.70
2018-08-23T11:02:19.508Z,30.90
2018-08-23T11:03:19.457Z,30.80
2018-08-23T11:04:19.522Z,29.60
2018-08-23T11:05:19.427Z,31.10
2018-08-23T11:06:19.435Z,31.60
2018-08-23T11:07:19.404Z,30.40
2018-08-23T11:08:19.442Z,31.60
2018-08-23T11:09:19.363Z,31.40
2018-08-23T11:10:19.460Z,30.50
2018-08-23T11:11:19.342Z,30.30
2018-08-23T11:12:19.368Z,28.90
2018-08-23T11:13:19.299Z,28.80
2018-08-23T11:14:19.378Z,28.90
2018-08-23T11:15:19.278Z,25.70
2018-08-23T11:16:19.287Z,25.70
2018-08-23T11:17:19.253Z,25.20
2018-08-23T11:18:19.299Z,25.90
2018-08-23T11:19:19.219Z,24.40
2018-08-23T11:20:19.313Z,22.20
2018-08-23T11:21:19.190Z,22.60
2018-08-23T11:22:19.225Z,23.90
2018-08-23T11:23:19.161Z,22.40
2018-08-23T11:24:19.236Z,24.00
2018-08-23T11:25:19.142Z,21.90
2018-08-23T11:26:19.145Z,22.80
2018-08-23T11:27:19.097Z,23.60
2018-08-23T11:28:19.158Z,23.30
2018-08-23T11:29:19.074Z,22.00
2018-08-23T11:30:19.170Z,21.40
2018-08-23T11:31:19.043Z,25.30
2018-08-23T11:32:19.080Z,23.00
2018-08-23T11:33:19.016Z,24.70
2018-08-23T11:34:19.006Z,21.20
2018-08-23T11:35:19.005Z,23.00
2018-08-23T11:36:19.111Z,21.40
2018-08-23T11:37:18.956Z,23.20
2018-08-23T11:38:19.022Z,24.60
2018-08-23T11:39:18.929Z,26.50
2018-08-23T11:40:18.939Z,24.30
2018-08-23T11:41:18.898Z,24.30
2018-08-23T11:42:18.947Z,24.30
2018-08-23T11:43:18.869Z,24.50
2018-08-23T11:44:18.962Z,24.00
2018-08-23T11:45:18.845Z,24.70
2018-08-23T11:46:18.874Z,23.90
2018-08-23T11:47:18.812Z,22.60
2018-08-23T11:48:18.802Z,23.60
2018-08-23T11:49:18.777Z,24.20
2018-08-23T11:50:18.778Z,22.90
2018-08-23T11:51:18.761Z,22.20
2018-08-23T11:52:18.815Z,24.40
2018-08-23T11:53:18.794Z,24.50
2018-08-23T11:54:18.721Z,22.40
2018-08-23T11:55:18.714Z,23.80
2018-08-23T11:56:18.689Z,22.00
2018-08-23T11:57:18.728Z,23.00
2018-08-23T11:58:18.661Z,22.60
2018-08-23T11:59:18.769Z,20.30
2018-08-23T12:00:18.632Z,23.10
2018-08-23T12:01:18.651Z,22.20
2018-08-23T12:02:18.601Z,19.50
2018-08-23T12:03:18.664Z,22.60
2018-08-23T12:04:18.575Z,22.30
2018-08-23T12:05:18.679Z,20.50
2018-08-23T12:06:18.549Z,24.70
2018-08-23T12:07:18.589Z,23.40
2018-08-23T12:08:18.521Z,21.00
2018-08-23T12:09:18.602Z,21.70
2018-08-23T12:10:18.496Z,20.90
2018-08-23T12:11:18.510Z,20.50
2018-08-23T12:12:18.464Z,19.50
2018-08-23T12:13:18.521Z,19.20
2018-08-23T12:14:18.441Z,20.40
2018-08-23T12:15:18.561Z,20.50
2018-08-23T12:16:18.413Z,19.10
2018-08-23T12:17:18.441Z,20.50
2018-08-23T12:18:18.382Z,20.10
2018-08-23T12:19:18.455Z,19.30
2018-08-23T12:20:18.358Z,18.20
2018-08-23T12:21:18.361Z,20.70
2018-08-23T12:22:18.325Z,18.80
2018-08-23T12:23:18.374Z,17.30
2018-08-23T12:24:18.299Z,18.50
2018-08-23T12:25:18.392Z,16.70
2018-08-23T12:26:18.321Z,17.40
2018-08-23T12:27:18.295Z,16.10
2018-08-23T12:28:18.245Z,16.50
2018-08-23T12:29:18.307Z,19.30
2018-08-23T12:30:18.220Z,15.80
2018-08-23T12:31:18.218Z,17.00
2018-08-23T12:32:18.198Z,17.00
2018-08-23T12:33:18.235Z,16.90
2018-08-23T12:34:18.161Z,16.80
2018-08-23T12:35:18.243Z,15.50
2018-08-23T12:36:18.134Z,17.30
2018-08-23T12:37:18.150Z,16.90
2018-08-23T12:38:18.117Z,15.80
2018-08-23T12:39:18.165Z,17.10
2018-08-23T12:40:18.082Z,17.30
2018-08-23T12:41:18.177Z,14.70
2018-08-23T12:42:18.081Z,14.30
2018-08-23T12:43:18.118Z,15.90
2018-08-23T12:44:18.028Z,15.10
2018-08-23T12:45:18.104Z,15.80
2018-08-23T12:46:18.063Z,15.70
2018-08-23T12:47:18.010Z,15.70
2018-08-23T12:48:17.975Z,16.20
2018-08-23T12:49:18.042Z,16.00
2018-08-23T12:50:17.946Z,16.00
2018-08-23T12:51:18.035Z,14.30
2018-08-23T12:52:17.917Z,15.30
2018-08-23T12:53:17.951Z,15.80